Time;durP1;ratioP1;P1;durP2;ratioP2;P2;SDS_P1;SDS_P2;PMS_P1;PMS_P2;Temp;Humidity;BMP_temperature;BMP_pressure;BME280_temperature;BME280_humidity;BME280_pressure;Samples;Min_cycle;Max_cycle;Signal;HPM_P1;HPM_P2
2022/06/15 00:01:49;;;;;;;12.10;6.85;;;;;;;16.45;89.73;99391.28;4811124;29;20065;-89
2022/06/15 00:04:15;;;;;;;19.00;7.60;;;;;;;16.39;89.59;99400.13;4778630;29;20074;-89
2022/06/15 00:06:42;;;;;;;13.82;6.90;;;;;;;16.39;89.62;99406.25;4794848;29;20066;-90
2022/06/15 00:09:09;;;;;;;11.93;7.40;;;;;;;16.41;89.44;99398.06;4779626;29;20039;-89
2022/06/15 00:11:39;;;;;;;10.60;6.75;;;;;;;16.27;90.20;99400.06;4772518;29;20421;-89
2022/06/15 00:14:17;;;;;;;8.98;7.07;;;;;;;16.32;90.25;99402.06;4762324;30;20112;-89
2022/06/15 00:16:43;;;;;;;9.95;6.90;;;;;;;16.23;90.11;99390.97;4779003;29;20031;-89
2022/06/15 00:19:10;;;;;;;11.55;7.10;;;;;;;16.22;90.46;99397.28;4775565;29;20043;-89
2022/06/15 00:21:35;;;;;;;11.27;7.32;;;;;;;16.27;90.02;99397.41;4766736;29;20127;-89
2022/06/15 00:24:01;;;;;;;10.85;7.35;;;;;;;16.34;89.87;99395.50;4810697;29;20126;-89
2022/06/15 00:26:27;;;;;;;11.57;6.70;;;;;;;16.38;89.61;99391.38;4780000;29;20070;-88
2022/06/15 00:28:53;;;;;;;15.23;8.10;;;;;;;15.87;91.33;99388.09;4809493;29;20050;-89
2022/06/15 00:31:20;;;;;;;14.75;7.72;;;;;;;15.84;91.56;99376.09;4809024;29;20067;-89
2022/06/15 00:33:46;;;;;;;11.55;7.38;;;;;;;15.96;91.27;99372.75;4792365;29;20150;-90
2022/06/15 00:36:14;;;;;;;11.07;6.85;;;;;;;16.06;91.25;99372.22;4791728;29;20066;-89
2022/06/15 00:38:42;;;;;;;12.68;7.05;;;;;;;16.05;91.25;99379.34;4792435;29;20038;-89
2022/06/15 00:41:15;;;;;;;11.57;7.07;;;;;;;15.95;91.66;99381.72;4777681;29;20030;-90
2022/06/15 00:43:45;;;;;;;9.90;6.90;;;;;;;15.95;91.21;99389.66;4776784;29;20051;-88
2022/06/15 00:46:18;;;;;;;11.98;7.72;;;;;;;15.85;91.76;99390.94;4776418;29;20069;-89
2022/06/15 00:48:46;;;;;;;;;;;;;;;16.07;91.06;99382.59;4756451;30;20050;-89
2022/06/15 00:51:14;;;;;;;11.70;7.35;;;;;;;15.92;91.37;99390.13;4757022;30;19922;-89
2022/06/15 00:53:39;;;;;;;9.90;7.28;;;;;;;16.08;91.24;99373.59;4794196;29;20115;-89
2022/06/15 00:56:08;;;;;;;13.68;7.10;;;;;;;15.95;91.49;99379.06;4792042;29;20039;-89
2022/06/15 00:58:37;;;;;;;11.77;7.32;;;;;;;15.98;91.17;99368.84;4793093;29;20130;-88
2022/06/15 01:01:07;;;;;;;13.45;7.35;;;;;;;15.95;91.77;99373.78;4808876;29;20034;-90
2022/06/15 01:03:33;;;;;;;10.98;7.55;;;;;;;15.83;91.90;99373.69;4780126;29;20517;-90
2022/06/15 01:06:35;;;;;;;11.82;7.35;;;;;;;15.70;92.53;99374.63;4794936;29;20027;-89
2022/06/15 01:09:22;;;;;;;10.38;7.10;;;;;;;15.64;93.60;99380.78;4822754;29;20072;-89
2022/06/15 01:12:05;;;;;;;13.77;8.13;;;;;;;15.44;94.62;99379.16;4778200;29;20051;-89
2022/06/15 01:15:08;;;;;;;12.32;7.78;;;;;;;15.57;94.11;99372.91;4808602;29;20034;-89
2022/06/15 01:17:34;;;;;;;14.73;8.15;;;;;;;15.57;94.58;99371.09;4779252;29;20038;-90
2022/06/15 01:20:09;;;;;;;13.27;7.68;;;;;;;15.72;94.09;99372.56;4783426;29;20043;-89
2022/06/15 01:22:58;;;;;;;11.52;7.68;;;;;;;15.66;94.53;99368.16;4800592;29;20049;-89
2022/06/15 01:25:41;;;;;;;12.20;7.68;;;;;;;15.37;95.44;99358.06;4786085;29;20047;-90
2022/06/15 01:30:58;;;;;;;14.85;9.25;;;;;;;15.45;96.33;99364.91;5094873;27;20362;-88
2022/06/15 01:33:35;;;;;;;10.98;8.25;;;;;;;15.40;96.51;99357.59;5090549;28;20553;-88
2022/06/15 01:36:10;;;;;;;11.95;8.70;;;;;;;15.25;97.25;99367.75;5075474;28;20034;-88
2022/06/15 01:38:39;;;;;;;17.00;8.50;;;;;;;15.13;97.48;99365.78;5090536;28;20032;-89
2022/06/15 01:41:15;;;;;;;12.60;8.27;;;;;;;15.27;97.04;99363.84;5091958;28;20024;-89
2022/06/15 01:43:54;;;;;;;13.70;8.18;;;;;;;15.18;96.93;99365.16;5075271;28;20040;-88
2022/06/15 01:46:22;;;;;;;16.60;9.02;;;;;;;15.08;97.61;99372.75;5092530;28;20028;-91
2022/06/15 01:48:51;;;;;;;16.10;9.43;;;;;;;14.89;98.86;99369.25;5084491;28;20477;-90
2022/06/15 01:51:28;;;;;;;19.15;9.35;;;;;;;14.84;99.50;99372.53;5091277;28;20393;-89
2022/06/15 01:53:59;;;;;;;13.07;8.13;;;;;;;14.88;99.21;99362.34;5080074;28;20024;-89
2022/06/15 01:56:31;;;;;;;15.40;9.75;;;;;;;14.94;98.97;99369.41;5087907;28;20098;-88
2022/06/15 01:59:04;;;;;;;13.25;8.48;;;;;;;14.85;99.20;99364.41;5080922;28;20035;-88
2022/06/15 02:02:01;;;;;;;14.95;9.32;;;;;;;14.91;99.52;99370.63;5098746;28;20051;-89
2022/06/15 02:04:26;;;;;;;11.68;8.95;;;;;;;14.88;99.56;99365.78;5081479;28;20110;-89
2022/06/15 02:07:16;;;;;;;14.80;8.52;;;;;;;14.84;99.82;99361.94;5082207;28;20124;-90
2022/06/15 02:09:52;;;;;;;11.20;7.95;;;;;;;14.76;99.57;99352.44;5097185;28;20108;-89
2022/06/15 02:12:25;;;;;;;14.55;8.50;;;;;;;14.70;99.81;99354.06;5082561;28;20038;-90
2022/06/15 02:14:58;;;;;;;17.60;9.07;;;;;;;14.77;100.00;99369.13;5082641;28;20035;-88
2022/06/15 02:17:33;;;;;;;;;;;;;;;14.83;100.00;99368.25;5081326;28;20119;-88
2022/06/15 02:20:08;;;;;;;17.08;9.35;;;;;;;14.74;100.00;99366.88;5091487;28;19976;-89
2022/06/15 02:22:39;;;;;;;14.73;9.13;;;;;;;14.73;100.00;99357.34;5091003;28;20036;-90
2022/06/15 02:25:12;;;;;;;12.77;9.38;;;;;;;14.64;100.00;99360.22;5074804;28;20131;-90
2022/06/15 02:27:40;;;;;;;14.07;10.03;;;;;;;14.57;100.00;99362.09;5091257;28;20040;-88
2022/06/15 02:30:34;;;;;;;13.07;9.35;;;;;;;14.46;100.00;99362.78;5090711;28;20293;-89
2022/06/15 02:33:20;;;;;;;15.18;10.45;;;;;;;14.31;100.00;99363.84;5074016;28;20123;-88
2022/06/15 02:35:45;;;;;;;16.80;10.23;;;;;;;14.20;100.00;99340.78;5076780;28;20046;-90
2022/06/15 02:38:11;;;;;;;23.77;11.23;;;;;;;14.31;100.00;99355.16;5096390;28;20031;-89
2022/06/15 02:40:38;;;;;;;15.77;9.95;;;;;;;14.40;100.00;99344.13;5106280;28;20028;-91
2022/06/15 02:43:04;;;;;;;15.60;9.80;;;;;;;14.22;100.00;99351.94;5082102;28;20440;-89
2022/06/15 02:45:35;;;;;;;17.27;10.27;;;;;;;14.54;100.00;99359.88;5097920;28;20036;-90
2022/06/15 02:48:04;;;;;;;16.38;10.27;;;;;;;14.46;100.00;99346.94;5082971;28;20040;-90
2022/06/15 02:50:37;;;;;;;17.00;9.85;;;;;;;14.49;100.00;99357.06;5060760;28;20110;-90
2022/06/15 02:53:12;;;;;;;15.80;9.68;;;;;;;14.62;100.00;99356.16;5060157;28;20036;-90
2022/06/15 02:55:38;;;;;;;15.45;10.15;;;;;;;14.47;100.00;99353.81;5087593;28;20032;-89
2022/06/15 02:58:14;;;;;;;15.63;9.63;;;;;;;14.50;100.00;99356.88;5072163;28;20032;-90
2022/06/15 03:00:42;;;;;;;16.15;9.45;;;;;;;14.61;100.00;99342.16;5090541;28;20465;-89
2022/06/15 03:07:04;;;;;;;14.88;9.35;;;;;;;14.57;100.00;99328.56;5097070;28;20404;-88
2022/06/15 03:09:29;;;;;;;15.27;9.68;;;;;;;14.45;100.00;99335.56;5083594;28;20034;-90
2022/06/15 03:11:55;;;;;;;14.00;9.55;;;;;;;14.48;100.00;99339.59;5083223;28;20042;-89
2022/06/15 03:14:21;;;;;;;16.40;9.10;;;;;;;14.48;100.00;99329.03;5082540;28;20055;-88
2022/06/15 03:16:49;;;;;;;13.38;9.05;;;;;;;14.50;100.00;99326.97;5082503;28;20035;-89
2022/06/15 03:19:15;;;;;;;14.40;8.98;;;;;;;14.56;100.00;99337.50;5086323;28;20107;-89
2022/06/15 03:21:41;;;;;;;13.55;9.23;;;;;;;14.49;100.00;99335.94;5072139;28;20063;-91
2022/06/15 03:24:07;;;;;;;16.85;9.02;;;;;;;14.34;100.00;99321.19;5082593;28;20084;-89
2022/06/15 03:26:33;;;;;;;10.90;8.10;;;;;;;14.37;100.00;99335.81;5086074;28;20020;-90
2022/06/15 03:28:59;;;;;;;12.98;8.30;;;;;;;14.30;100.00;99327.91;5065274;28;20560;-89
2022/06/15 03:31:27;;;;;;;14.25;8.20;;;;;;;14.30;100.00;99317.34;5089994;28;20465;-89
2022/06/15 03:33:53;;;;;;;12.32;7.90;;;;;;;14.20;100.00;99328.38;5071744;28;20489;-90
2022/06/15 03:36:20;;;;;;;12.93;8.50;;;;;;;14.11;100.00;99341.00;5072662;28;20074;-89
2022/06/15 03:38:45;;;;;;;13.77;7.88;;;;;;;14.03;100.00;99335.16;5081518;28;20477;-90
2022/06/15 03:41:12;;;;;;;12.75;9.02;;;;;;;13.90;100.00;99328.09;5093473;28;20036;-89
2022/06/15 03:43:39;;;;;;;12.07;8.48;;;;;;;13.91;100.00;99340.28;5081381;28;20036;-89
2022/06/15 03:46:04;;;;;;;11.55;8.38;;;;;;;13.72;100.00;99321.66;5062989;28;20020;-89
2022/06/15 03:48:30;;;;;;;11.77;7.80;;;;;;;13.79;100.00;99333.03;5076557;28;20401;-90
2022/06/15 03:50:56;;;;;;;11.63;8.23;;;;;;;13.78;100.00;99331.41;5067838;28;20118;-90
2022/06/15 03:53:22;;;;;;;13.35;8.55;;;;;;;13.72;100.00;99324.31;5060780;28;20129;-89
2022/06/15 03:55:47;;;;;;;11.85;7.95;;;;;;;13.83;100.00;99339.50;5071263;28;20059;-89
2022/06/15 03:58:16;;;;;;;11.57;8.15;;;;;;;13.81;100.00;99331.00;5084585;28;20335;-89
2022/06/15 04:00:42;;;;;;;10.00;7.85;;;;;;;13.89;100.00;99329.13;5085065;28;20066;-90
2022/06/15 04:03:15;;;;;;;15.48;8.95;;;;;;;13.92;100.00;99337.44;5080844;28;20582;-89
2022/06/15 04:05:49;;;;;;;12.55;8.05;;;;;;;13.92;100.00;99336.63;5076257;28;20397;-90
2022/06/15 04:11:58;;;;;;;12.35;8.30;;;;;;;14.08;100.00;99335.34;5079794;28;20129;-90
2022/06/15 04:14:00;;;;;;;11.35;7.30;;;;;;;14.13;100.00;99333.69;5078450;28;20482;-89
2022/06/15 04:16:28;;;;;;;10.48;7.15;;;;;;;14.10;100.00;99322.75;5063768;28;20458;-90
2022/06/15 04:18:54;;;;;;;13.32;7.45;;;;;;;14.13;100.00;99322.31;5062998;28;20036;-88
2022/06/15 04:21:20;;;;;;;11.07;7.40;;;;;;;14.12;100.00;99316.22;5077917;28;20042;-88
2022/06/15 04:23:45;;;;;;;12.57;6.78;;;;;;;14.19;100.00;99321.47;5075081;28;20036;-89
2022/06/15 04:26:11;;;;;;;10.63;7.47;;;;;;;14.32;100.00;99331.16;5085797;28;20081;-90
2022/06/15 04:28:39;;;;;;;10.73;7.15;;;;;;;14.41;100.00;99329.91;5086816;28;20063;-88
2022/06/15 04:31:05;;;;;;;9.75;6.88;;;;;;;14.51;100.00;99333.88;5083129;28;20085;-90
2022/06/15 04:33:31;;;;;;;12.23;8.25;;;;;;;14.53;100.00;99331.84;5072199;28;20065;-90
2022/06/15 04:35:57;;;;;;;13.38;7.28;;;;;;;14.53;100.00;99327.38;5095045;28;20046;-89
2022/06/15 04:38:24;;;;;;;9.40;7.53;;;;;;;14.53;100.00;99334.47;5094349;28;20024;-89
2022/06/15 04:40:50;;;;;;;15.07;7.82;;;;;;;14.53;100.00;99327.38;5074689;28;20377;-89
2022/06/15 04:43:16;;;;;;;13.18;7.80;;;;;;;14.55;100.00;99335.91;5060578;28;20036;-88
2022/06/15 04:45:42;;;;;;;13.90;7.65;;;;;;;14.48;100.00;99331.69;5080164;28;20489;-89
2022/06/15 04:48:09;;;;;;;12.00;8.43;;;;;;;14.56;100.00;99342.78;5067103;28;20142;-89
2022/06/15 04:50:36;;;;;;;11.95;7.82;;;;;;;14.55;100.00;99335.09;5082279;28;20043;-89
2022/06/15 04:53:02;;;;;;;13.00;8.68;;;;;;;14.67;100.00;99341.31;5082646;28;20063;-90
2022/06/15 04:55:29;;;;;;;14.32;8.75;;;;;;;14.81;100.00;99336.75;5064957;28;20032;-90
2022/06/15 04:57:56;;;;;;;11.35;7.82;;;;;;;14.87;100.00;99343.03;5087688;28;20064;-90
2022/06/15 05:00:24;;;;;;;15.75;8.38;;;;;;;14.94;100.00;99349.09;5082542;28;20024;-90
2022/06/15 05:02:51;;;;;;;13.88;8.18;;;;;;;15.01;100.00;99351.66;5062730;28;20036;-89
2022/06/15 05:05:17;;;;;;;13.25;8.55;;;;;;;15.00;100.00;99331.53;5063691;28;20029;-89
2022/06/15 05:07:45;;;;;;;15.70;8.23;;;;;;;15.09;100.00;99345.28;5065803;28;20037;-90
2022/06/15 05:10:24;;;;;;;11.00;8.32;;;;;;;15.16;100.00;99339.94;5088421;28;20024;-90
2022/06/15 05:12:53;;;;;;;12.73;8.23;;;;;;;15.20;100.00;99336.66;5099431;28;20392;-90
2022/06/15 05:15:20;;;;;;;14.50;8.55;;;;;;;15.14;100.00;99319.03;5099037;28;20058;-91
2022/06/15 05:17:47;;;;;;;13.35;8.52;;;;;;;15.28;100.00;99332.94;5083427;28;20048;-91
2022/06/15 05:20:15;;;;;;;12.40;8.40;;;;;;;15.35;100.00;99348.72;5083260;28;20020;-91
2022/06/15 05:22:43;;;;;;;14.70;8.65;;;;;;;15.28;100.00;99317.84;5085218;28;20028;-91
2022/06/15 05:33:21;;;;;;;14.45;10.60;;;;;;;15.41;100.00;99339.91;5126162;28;20371;-92
2022/06/15 05:35:46;;;;;;;14.23;10.18;;;;;;;15.44;100.00;99336.81;5105755;28;20023;-90
2022/06/15 05:38:12;;;;;;;13.57;9.80;;;;;;;15.42;100.00;99349.47;5090261;28;20050;-86
2022/06/15 05:40:38;;;;;;;14.43;9.70;;;;;;;15.55;100.00;99359.09;5082166;28;20430;-91
2022/06/15 05:43:03;;;;;;;15.35;9.80;;;;;;;15.55;100.00;99359.94;5081150;28;20028;-91
2022/06/15 05:45:30;;;;;;;14.52;10.38;;;;;;;15.45;100.00;99359.59;5081479;28;20032;-84
2022/06/15 05:47:58;;;;;;;14.32;10.68;;;;;;;15.56;100.00;99366.00;5118294;28;20026;-91
2022/06/15 05:50:27;;;;;;;15.57;10.20;;;;;;;15.54;100.00;99349.56;5124288;28;20018;-91
2022/06/15 06:07:56;;;;;;;23.58;12.95;;;;;;;16.20;100.00;99359.63;3677152;23;19962;-91
2022/06/15 06:10:22;;;;;;;23.40;12.70;;;;;;;16.17;100.00;99338.88;4880247;29;20092;-88
2022/06/15 06:12:47;;;;;;;18.85;13.05;;;;;;;16.36;100.00;99363.47;4872561;29;20502;-90
2022/06/15 06:15:13;;;;;;;19.13;12.50;;;;;;;16.43;100.00;99353.63;4868527;29;20036;-87
2022/06/15 06:17:39;;;;;;;17.95;12.98;;;;;;;16.59;100.00;99360.13;4874924;29;20143;-85
2022/06/15 06:20:05;;;;;;;18.17;11.65;;;;;;;16.80;100.00;99363.28;4910573;29;20028;-87
2022/06/15 06:22:31;;;;;;;21.35;13.10;;;;;;;16.85;100.00;99355.44;4899593;29;20074;-86
2022/06/15 06:24:56;;;;;;;18.73;12.57;;;;;;;17.04;100.00;99368.63;4890138;29;20063;-85
2022/06/15 06:27:22;;;;;;;19.20;12.82;;;;;;;17.12;100.00;99363.00;4915359;29;20508;-88
2022/06/15 06:29:48;;;;;;;19.60;13.40;;;;;;;17.18;100.00;99356.78;4891589;29;20037;-90
2022/06/15 06:32:15;;;;;;;18.08;13.45;;;;;;;17.22;100.00;99365.88;4903893;29;20029;-89
2022/06/15 06:34:40;;;;;;;22.27;14.05;;;;;;;17.12;100.00;99361.16;4881588;29;20403;-88
2022/06/15 06:37:07;;;;;;;24.17;12.93;;;;;;;17.19;100.00;99369.00;4919412;29;20040;-86
2022/06/15 06:39:34;;;;;;;19.13;12.60;;;;;;;17.33;100.00;99368.78;4892310;29;20036;-87
2022/06/15 06:42:02;;;;;;;18.33;12.88;;;;;;;17.50;100.00;99361.75;4878553;29;20387;-85
2022/06/15 06:44:28;;;;;;;20.92;12.77;;;;;;;17.63;100.00;99358.03;4905482;29;20076;-84
2022/06/15 06:46:54;;;;;;;15.82;11.48;;;;;;;18.02;100.00;99360.16;4890877;29;20044;-82
2022/06/15 06:49:24;;;;;;;25.63;12.48;;;;;;;18.16;98.71;99359.88;4869374;29;20115;-82
2022/06/15 06:51:51;;;;;;;21.00;12.25;;;;;;;18.30;97.31;99369.19;4901126;29;20043;-82
2022/06/15 06:54:21;;;;;;;20.13;11.63;;;;;;;18.49;96.61;99369.00;4888545;29;20120;-84
2022/06/15 06:56:47;;;;;;;15.90;10.88;;;;;;;18.76;96.18;99365.72;4906102;29;20080;-86
2022/06/15 06:59:16;;;;;;;17.67;12.07;;;;;;;18.91;95.12;99371.31;4890878;29;20028;-87
2022/06/15 07:01:43;;;;;;;16.48;12.18;;;;;;;18.97;93.41;99372.19;4891797;29;20036;-89
2022/06/15 07:04:11;;;;;;;14.82;11.30;;;;;;;18.95;93.55;99368.94;4909272;29;20024;-88
2022/06/15 07:06:38;;;;;;;19.13;11.73;;;;;;;19.20;92.82;99368.56;4890025;29;20056;-86
2022/06/15 07:09:04;;;;;;;19.63;12.68;;;;;;;19.33;91.51;99377.28;4892834;29;20044;-88
2022/06/15 07:11:30;;;;;;;17.58;11.75;;;;;;;19.43;91.51;99380.06;4873068;29;20033;-86
2022/06/15 07:13:56;;;;;;;15.82;11.77;;;;;;;19.44;91.98;99381.69;4869022;29;20028;-88
2022/06/15 07:16:22;;;;;;;18.38;12.82;;;;;;;19.37;91.55;99386.38;4868845;29;20373;-84
2022/06/15 07:18:48;;;;;;;20.48;12.02;;;;;;;19.41;92.78;99382.19;4870969;29;20044;-84
2022/06/15 07:21:22;;;;;;;17.17;13.18;;;;;;;19.39;92.85;99384.28;4872833;29;20036;-87
2022/06/15 07:23:49;;;;;;;18.60;13.90;;;;;;;19.34;92.50;99386.88;4890935;29;20036;-87
2022/06/15 07:26:20;;;;;;;22.85;14.32;;;;;;;19.49;92.13;99388.94;4888040;29;20033;-85
2022/06/15 07:28:46;;;;;;;20.70;14.55;;;;;;;19.55;91.52;99391.44;4853900;29;20033;-82
2022/06/15 07:31:39;;;;;;;20.27;15.10;;;;;;;19.57;91.61;99398.38;4890844;29;20032;-87
2022/06/15 07:34:07;;;;;;;26.75;14.98;;;;;;;19.59;91.87;99382.94;4848164;29;20049;-87
2022/06/15 07:36:34;;;;;;;24.40;15.48;;;;;;;19.65;90.83;99376.63;4885168;29;20144;-86
2022/06/15 07:38:59;;;;;;;24.58;15.20;;;;;;;19.60;90.36;99381.91;4888823;29;20021;-88
2022/06/15 07:41:26;;;;;;;22.38;15.02;;;;;;;19.69;90.04;99386.56;4870605;29;20044;-86
2022/06/15 07:43:53;;;;;;;24.63;15.80;;;;;;;19.88;90.86;99391.59;4886900;29;20421;-87
2022/06/15 07:46:19;;;;;;;20.95;15.43;;;;;;;20.15;90.07;99395.41;4874996;29;20025;-87
2022/06/15 07:51:43;;;;;;;20.00;13.77;;;;;;;20.66;87.58;99387.94;4891740;29;20470;-88
2022/06/15 07:54:12;;;;;;;24.13;14.40;;;;;;;20.75;86.93;99393.63;4888696;29;20108;-88
2022/06/15 07:56:39;;;;;;;24.77;13.73;;;;;;;20.86;87.99;99389.19;4875458;29;20045;-88
2022/06/15 07:59:06;;;;;;;21.27;13.05;;;;;;;20.83;87.91;99385.16;4889294;29;20089;-86
2022/06/15 08:01:32;;;;;;;20.10;12.70;;;;;;;20.87;87.97;99382.81;4875369;29;20067;-87
2022/06/15 08:03:58;;;;;;;24.95;14.73;;;;;;;20.87;87.16;99382.81;4874603;29;20035;-86
2022/06/15 08:06:24;;;;;;;20.10;12.93;;;;;;;20.82;86.39;99383.56;4870102;29;20112;-85
2022/06/15 08:08:51;;;;;;;22.42;13.55;;;;;;;20.72;86.84;99394.09;4885988;29;20104;-84
2022/06/15 08:11:17;;;;;;;20.95;14.02;;;;;;;20.80;86.89;99390.19;4853877;29;20063;-87
2022/06/15 08:13:44;;;;;;;19.80;13.48;;;;;;;21.03;86.67;99388.25;4854616;29;20032;-86
2022/06/15 08:16:09;;;;;;;22.25;14.35;;;;;;;21.11;86.28;99390.47;4886141;29;20032;-87
2022/06/15 08:18:44;;;;;;;20.17;12.95;;;;;;;21.26;89.11;99393.25;4887835;29;20033;-86
2022/06/15 08:21:16;;;;;;;19.30;12.75;;;;;;;21.47;87.56;99387.22;4889629;29;20041;-86
2022/06/15 08:23:46;;;;;;;20.80;14.60;;;;;;;21.52;84.45;99385.38;4884011;29;20029;-88
2022/06/15 08:26:17;;;;;;;21.70;12.98;;;;;;;21.66;84.99;99388.41;4868168;29;20091;-85
2022/06/15 08:28:47;;;;;;;18.17;11.75;;;;;;;21.72;86.35;99389.25;4872635;29;20040;-88
2022/06/15 08:31:13;;;;;;;22.48;13.13;;;;;;;21.67;85.16;99383.88;4889247;29;20116;-86
2022/06/15 08:33:39;;;;;;;27.20;12.98;;;;;;;21.48;84.80;99381.63;4886358;29;20039;-85
2022/06/15 08:36:06;;;;;;;18.85;12.98;;;;;;;21.35;85.07;99379.41;4890821;29;20032;-86
2022/06/15 08:38:32;;;;;;;18.35;13.73;;;;;;;21.09;85.62;99374.69;4867015;29;20116;-87
2022/06/15 08:41:06;;;;;;;18.90;12.80;;;;;;;21.02;86.12;99378.63;4870594;29;20418;-86
2022/06/15 08:43:55;;;;;;;18.00;12.70;;;;;;;21.01;86.17;99374.34;4885505;29;20043;-86
2022/06/15 08:46:26;;;;;;;21.35;12.95;;;;;;;21.00;85.81;99378.09;4886107;29;20034;-87
2022/06/15 08:49:10;;;;;;;20.45;12.50;;;;;;;21.02;85.63;99374.09;4869206;29;20076;-85
2022/06/15 08:51:41;;;;;;;20.73;13.20;;;;;;;21.14;85.68;99381.94;4868541;29;20039;-86
2022/06/15 08:54:24;;;;;;;16.02;11.52;;;;;;;21.17;85.66;99381.41;4851340;29;20033;-86
2022/06/15 08:57:02;;;;;;;21.48;12.88;;;;;;;21.16;85.40;99387.81;4876004;29;20089;-85
2022/06/15 08:59:38;;;;;;;20.00;12.90;;;;;;;21.15;85.39;99380.09;4883794;29;20040;-85
2022/06/15 09:02:36;;;;;;;22.30;13.35;;;;;;;21.16;84.49;99382.47;4863666;29;20040;-88
2022/06/15 09:05:24;;;;;;;20.88;12.95;;;;;;;21.38;84.20;99384.22;4849421;29;20055;-88
2022/06/15 09:07:53;;;;;;;19.90;11.52;;;;;;;21.64;85.42;99381.72;4868816;29;20807;-88
2022/06/15 09:10:27;;;;;;;16.02;10.82;;;;;;;21.97;86.96;99385.06;4888940;29;20029;-90
2022/06/15 09:13:27;;;;;;;20.08;12.10;;;;;;;22.25;84.50;99381.16;4889714;29;20490;-90
2022/06/15 09:16:05;;;;;;;19.35;12.57;;;;;;;22.33;83.03;99382.50;4850522;29;20404;-89
2022/06/15 09:18:49;;;;;;;18.02;11.75;;;;;;;22.48;81.80;99372.94;4887785;29;20072;-85
2022/06/15 09:21:53;;;;;;;20.65;12.45;;;;;;;22.56;82.06;99375.06;4886066;29;20040;-84
2022/06/15 09:24:50;;;;;;;23.67;12.43;;;;;;;23.04;79.62;99384.75;4852754;29;20052;-85
2022/06/15 09:27:31;;;;;;;20.50;11.25;;;;;;;23.26;78.63;99376.41;4867822;29;20429;-85
2022/06/15 09:30:02;;;;;;;21.63;11.15;;;;;;;23.49;80.45;99368.91;4886823;29;21050;-85
2022/06/15 09:32:43;;;;;;;15.45;9.90;;;;;;;23.82;79.50;99377.34;4867817;29;20437;-86
2022/06/15 09:35:32;;;;;;;15.43;11.07;;;;;;;24.00;76.33;99377.78;4884547;29;20471;-85
2022/06/15 09:38:01;;;;;;;14.18;10.48;;;;;;;23.98;76.46;99378.09;4851754;29;20041;-87
2022/06/15 09:40:37;;;;;;;18.58;10.88;;;;;;;23.88;76.82;99380.81;4888228;29;20450;-86
2022/06/15 09:43:22;;;;;;;23.08;11.27;;;;;;;24.07;76.64;99378.31;4854246;29;20033;-85
2022/06/15 09:46:02;;;;;;;18.60;11.32;;;;;;;24.41;78.16;99382.16;4853995;29;20032;-86
2022/06/15 09:48:56;;;;;;;16.67;10.43;;;;;;;24.89;77.70;99376.22;4867873;29;20042;-85
2022/06/15 09:52:10;;;;;;;26.77;12.50;;;;;;;25.35;74.89;99374.94;4854641;29;20041;-85
2022/06/15 09:54:42;;;;;;;20.08;10.45;;;;;;;25.89;75.60;99370.34;4845197;29;20068;-85
2022/06/15 09:57:11;;;;;;;19.42;9.93;;;;;;;26.41;73.64;99364.25;4856120;29;20483;-86
2022/06/15 09:59:44;;;;;;;13.90;9.07;;;;;;;26.71;72.57;99366.75;4867504;29;20094;-86
2022/06/15 10:02:23;;;;;;;13.77;9.88;;;;;;;27.06;72.42;99360.00;4858691;29;20040;-85
2022/06/15 10:04:49;;;;;;;18.67;10.77;;;;;;;27.01;71.12;99359.28;4892226;29;20037;-87
2022/06/15 10:07:43;;;;;;;10.50;9.40;;;;;;;26.96;72.12;99357.47;4873327;29;20060;-87
2022/06/15 10:10:28;;;;;;;;;;;;;;;26.87;69.23;99360.03;4871768;29;20186;-86
2022/06/15 10:13:17;;;;;;;12.50;9.10;;;;;;;26.66;68.35;99365.75;4888426;29;19998;-87
2022/06/15 10:15:42;;;;;;;14.65;8.30;;;;;;;26.77;69.05;99365.59;4884360;29;20063;-86
2022/06/15 10:18:17;;;;;;;12.93;9.20;;;;;;;26.62;67.86;99353.97;4889852;29;20551;-86
2022/06/15 10:21:01;;;;;;;10.48;8.57;;;;;;;26.62;67.10;99356.66;4887340;29;20029;-87
2022/06/15 10:23:33;;;;;;;;;;;;;;;26.71;67.23;99366.75;4875147;29;20032;-86
2022/06/15 10:25:58;;;;;;;10.63;8.50;;;;;;;26.59;66.74;99365.34;4869285;29;19916;-85
2022/06/15 10:28:34;;;;;;;11.48;8.57;;;;;;;26.79;66.65;99360.72;4889592;29;20038;-85
2022/06/15 10:31:08;;;;;;;12.98;8.77;;;;;;;26.99;65.78;99351.50;4890118;29;20032;-86
2022/06/15 10:33:40;;;;;;;13.05;7.88;;;;;;;27.33;68.88;99349.56;4888893;29;20479;-85
2022/06/15 10:36:33;;;;;;;14.82;9.93;;;;;;;27.09;65.72;99355.91;4856579;29;20041;-86
2022/06/15 10:39:22;;;;;;;12.43;8.47;;;;;;;27.68;65.45;99357.25;4874760;29;20108;-86
2022/06/15 10:41:49;;;;;;;12.60;8.23;;;;;;;27.73;63.16;99347.16;4871308;29;20033;-86
2022/06/15 10:44:32;;;;;;;8.63;7.72;;;;;;;27.94;63.23;99352.13;4873327;29;20513;-86
2022/06/15 10:47:18;;;;;;;12.82;7.93;;;;;;;28.17;64.25;99352.97;4869276;29;20037;-85
2022/06/15 10:49:50;;;;;;;17.23;8.90;;;;;;;28.19;62.15;99356.16;4890033;29;20041;-87
2022/06/15 10:52:23;;;;;;;8.82;7.88;;;;;;;28.39;61.53;99350.59;4870576;29;20119;-85
2022/06/15 11:03:25;;;;;;;8.13;6.25;;;;;;;28.69;59.62;99346.34;4886594;29;20043;-85
2022/06/15 11:05:58;;;;;;;12.10;6.50;;;;;;;28.85;57.14;99349.47;4889438;29;20108;-86
2022/06/15 11:08:29;;;;;;;9.80;5.80;;;;;;;29.30;57.98;99345.09;4868847;29;20132;-86
2022/06/15 11:11:26;;;;;;;7.20;5.97;;;;;;;29.50;56.37;99349.94;4886518;29;20033;-86
2022/06/15 11:14:04;;;;;;;11.40;6.85;;;;;;;29.31;55.77;99344.75;4888680;29;20032;-87
2022/06/15 11:19:21;;;;;;;9.52;6.03;;;;;;;29.43;57.79;99344.19;4872686;29;20476;-87
2022/06/15 11:21:55;;;;;;;10.98;6.45;;;;;;;29.58;56.94;99342.16;4856788;29;20487;-86
2022/06/15 11:24:33;;;;;;;7.60;5.93;;;;;;;28.61;52.94;99339.00;4888495;29;20048;-88
2022/06/15 11:27:15;;;;;;;6.47;5.85;;;;;;;28.95;53.38;99337.59;4889812;29;20032;-87
2022/06/15 11:29:56;;;;;;;6.80;6.05;;;;;;;29.26;54.51;99344.09;4857463;29;20460;-85
2022/06/15 11:32:22;;;;;;;6.18;5.60;;;;;;;29.61;54.04;99341.53;4874547;29;20029;-85
2022/06/15 11:35:13;;;;;;;8.30;6.10;;;;;;;29.99;55.20;99345.56;4870828;29;20040;-87
2022/06/15 11:37:55;;;;;;;6.30;5.70;;;;;;;30.14;54.75;99338.91;4887588;29;20036;-87
2022/06/15 11:40:21;;;;;;;7.80;6.40;;;;;;;29.05;51.70;99344.66;4871437;29;20097;-85
2022/06/15 11:42:53;;;;;;;10.70;7.32;;;;;;;29.55;51.26;99350.91;4857097;29;20041;-85
2022/06/15 11:45:32;;;;;;;7.43;5.88;;;;;;;29.74;54.83;99348.72;4868193;29;20028;-86
2022/06/15 11:48:04;;;;;;;9.48;6.78;;;;;;;28.45;52.54;99341.25;4869590;29;20060;-85
2022/06/15 11:50:55;;;;;;;10.10;6.47;;;;;;;28.20;53.00;99338.06;4854468;29;20032;-86
2022/06/15 11:53:37;;;;;;;11.32;6.22;;;;;;;28.27;52.61;99343.84;4850562;29;20044;-86
2022/06/15 11:56:13;;;;;;;7.05;6.35;;;;;;;27.85;52.92;99338.53;4887486;29;20542;-86
2022/06/15 11:58:45;;;;;;;11.45;6.82;;;;;;;27.62;54.14;99349.28;4856990;29;20479;-85
2022/06/15 12:01:59;;;;;;;12.10;7.90;;;;;;;27.68;54.37;99349.16;4870406;29;20093;-85
2022/06/15 12:04:28;;;;;;;11.23;6.85;;;;;;;28.02;53.29;99335.19;4839993;29;20651;-86
2022/06/15 12:07:20;;;;;;;7.47;6.22;;;;;;;27.90;52.60;99330.34;4868764;29;20048;-86
2022/06/15 12:10:07;;;;;;;10.07;6.22;;;;;;;27.94;53.83;99325.13;4886704;29;20067;-87
2022/06/15 12:12:47;;;;;;;7.38;5.97;;;;;;;28.19;53.27;99331.06;4873099;29;20075;-86
2022/06/15 12:15:36;;;;;;;8.07;5.93;;;;;;;28.51;53.09;99326.56;4871517;29;20040;-86
2022/06/15 12:18:20;;;;;;;9.52;6.28;;;;;;;28.78;52.14;99322.88;4867695;29;20056;-86
2022/06/15 12:21:14;;;;;;;10.60;6.10;;;;;;;28.81;51.85;99318.00;4870780;29;20484;-87
2022/06/15 12:24:08;;;;;;;8.43;6.43;;;;;;;29.10;53.09;99328.31;4890916;29;20372;-86
2022/06/15 12:26:50;;;;;;;8.07;6.95;;;;;;;27.68;53.53;99328.38;4870775;29;20083;-85
2022/06/15 12:29:48;;;;;;;7.88;6.68;;;;;;;28.27;52.68;99326.84;4884262;29;20037;-85
2022/06/15 12:35:10;;;;;;;7.55;6.63;;;;;;;29.44;51.59;99331.47;4884994;29;20115;-85
2022/06/15 12:37:45;;;;;;;7.85;5.95;;;;;;;30.01;49.80;99327.88;4886283;29;20046;-85